sensor_id;sensor_type;location;lat;lon;timestamp;temperature;humidity
9329;DHT22;4703;48.748;19.142;2022-12-20T00:01:28;-2.00;99.90
9329;DHT22;4703;48.748;19.142;2022-12-20T00:03:58;-2.00;99.90
9329;DHT22;4703;48.748;19.142;2022-12-20T00:06:27;-1.90;99.90
9329;DHT22;4703;48.748;19.142;2022-12-20T00:09:00;-1.90;99.90
9329;DHT22;4703;48.748;19.142;2022-12-20T00:11:28;-1.90;99.90
9329;DHT22;4703;48.748;19.142;2022-12-20T00:13:56;-1.90;99.90
9329;DHT22;4703;48.748;19.142;2022-12-20T00:16:26;-1.90;99.90
9329;DHT22;4703;48.748;19.142;2022-12-20T00:18:57;-1.80;99.90
9329;DHT22;4703;48.748;19.142;2022-12-20T00:21:26;-2.00;99.90
9329;DHT22;4703;48.748;19.142;2022-12-20T00:23:54;-1.90;99.90
9329;DHT22;4703;48.748;19.142;2022-12-20T00:26:24;-2.00;99.90
9329;DHT22;4703;48.748;19.142;2022-12-20T00:28:53;-2.00;99.90
9329;DHT22;4703;48.748;19.142;2022-12-20T00:31:21;-1.90;99.90
9329;DHT22;4703;48.748;19.142;2022-12-20T00:33:52;-2.10;99.90
9329;DHT22;4703;48.748;19.142;2022-12-20T00:36:21;-2.00;99.90
9329;DHT22;4703;48.748;19.142;2022-12-20T00:38:50;-2.00;99.90
9329;DHT22;4703;48.748;19.142;2022-12-20T00:41:26;-1.80;99.90
9329;DHT22;4703;48.748;19.142;2022-12-20T00:43:55;-1.90;99.90
9329;DHT22;4703;48.748;19.142;2022-12-20T00:46:22;-2.10;99.90
9329;DHT22;4703;48.748;19.142;2022-12-20T00:48:50;-1.90;99.90
9329;DHT22;4703;48.748;19.142;2022-12-20T00:51:20;-1.90;99.90
9329;DHT22;4703;48.748;19.142;2022-12-20T00:53:49;-1.90;99.90
9329;DHT22;4703;48.748;19.142;2022-12-20T00:56:16;-1.90;99.90
9329;DHT22;4703;48.748;19.142;2022-12-20T00:58:44;-1.90;99.90
9329;DHT22;4703;48.748;19.142;2022-12-20T01:01:23;-1.90;99.90
9329;DHT22;4703;48.748;19.142;2022-12-20T01:03:52;-2.00;99.90
9329;DHT22;4703;48.748;19.142;2022-12-20T01:06:21;-2.00;99.90
9329;DHT22;4703;48.748;19.142;2022-12-20T01:08:51;-2.00;99.90
9329;DHT22;4703;48.748;19.142;2022-12-20T01:11:28;-2.00;99.90
9329;DHT22;4703;48.748;19.142;2022-12-20T01:14:10;-1.90;99.90
9329;DHT22;4703;48.748;19.142;2022-12-20T01:16:41;-1.90;99.90
9329;DHT22;4703;48.748;19.142;2022-12-20T01:19:12;-1.90;99.90
9329;DHT22;4703;48.748;19.142;2022-12-20T01:21:41;-1.90;99.90
9329;DHT22;4703;48.748;19.142;2022-12-20T01:24:11;-1.90;99.90
9329;DHT22;4703;48.748;19.142;2022-12-20T01:26:44;-1.90;99.90
9329;DHT22;4703;48.748;19.142;2022-12-20T01:29:13;-1.90;99.90
9329;DHT22;4703;48.748;19.142;2022-12-20T01:31:40;-1.80;99.90
9329;DHT22;4703;48.748;19.142;2022-12-20T01:34:08;-1.90;99.90
9329;DHT22;4703;48.748;19.142;2022-12-20T01:36:36;-1.80;99.90
9329;DHT22;4703;48.748;19.142;2022-12-20T01:39:05;-1.80;99.90
9329;DHT22;4703;48.748;19.142;2022-12-20T01:41:35;-1.80;99.90
9329;DHT22;4703;48.748;19.142;2022-12-20T01:46:45;-1.80;99.90
9329;DHT22;4703;48.748;19.142;2022-12-20T01:51:46;-1.80;99.90
9329;DHT22;4703;48.748;19.142;2022-12-20T01:54:28;-1.80;99.90
9329;DHT22;4703;48.748;19.142;2022-12-20T01:57:01;-1.70;99.90
9329;DHT22;4703;48.748;19.142;2022-12-20T01:59:32;-1.70;99.90
9329;DHT22;4703;48.748;19.142;2022-12-20T02:02:04;-1.60;99.90
9329;DHT22;4703;48.748;19.142;2022-12-20T02:04:34;-1.50;99.90
9329;DHT22;4703;48.748;19.142;2022-12-20T02:07:02;-1.70;99.90
9329;DHT22;4703;48.748;19.142;2022-12-20T02:09:31;-1.70;99.90
9329;DHT22;4703;48.748;19.142;2022-12-20T02:12:11;-1.60;99.90
9329;DHT22;4703;48.748;19.142;2022-12-20T02:20:56;-1.70;99.90
9329;DHT22;4703;48.748;19.142;2022-12-20T02:27:08;-1.70;99.90
9329;DHT22;4703;48.748;19.142;2022-12-20T02:30:18;-1.60;99.90
9329;DHT22;4703;48.748;19.142;2022-12-20T02:32:55;-1.80;99.90
9329;DHT22;4703;48.748;19.142;2022-12-20T02:35:30;-1.70;99.90
9329;DHT22;4703;48.748;19.142;2022-12-20T02:38:03;-1.70;99.90
9329;DHT22;4703;48.748;19.142;2022-12-20T02:40:53;-1.80;99.90
9329;DHT22;4703;48.748;19.142;2022-12-20T02:43:43;-1.70;99.90
9329;DHT22;4703;48.748;19.142;2022-12-20T02:46:31;-1.70;99.90
9329;DHT22;4703;48.748;19.142;2022-12-20T02:49:02;-1.70;99.90
9329;DHT22;4703;48.748;19.142;2022-12-20T02:51:32;-1.70;99.90
9329;DHT22;4703;48.748;19.142;2022-12-20T02:54:00;-1.50;99.90
9329;DHT22;4703;48.748;19.142;2022-12-20T02:56:37;-1.70;99.90
9329;DHT22;4703;48.748;19.142;2022-12-20T02:59:16;-1.60;99.90
9329;DHT22;4703;48.748;19.142;2022-12-20T03:01:48;-1.60;99.90
9329;DHT22;4703;48.748;19.142;2022-12-20T03:04:20;-1.60;99.90
9329;DHT22;4703;48.748;19.142;2022-12-20T03:09:26;-1.50;99.90
9329;DHT22;4703;48.748;19.142;2022-12-20T03:11:54;-1.60;99.90
9329;DHT22;4703;48.748;19.142;2022-12-20T03:14:21;-1.50;99.90
9329;DHT22;4703;48.748;19.142;2022-12-20T03:16:49;-0.60;99.90
9329;DHT22;4703;48.748;19.142;2022-12-20T03:19:16;-1.60;99.90
9329;DHT22;4703;48.748;19.142;2022-12-20T03:21:43;-0.50;99.90
9329;DHT22;4703;48.748;19.142;2022-12-20T03:24:10;-1.60;99.90
9329;DHT22;4703;48.748;19.142;2022-12-20T03:26:39;-1.00;99.90
9329;DHT22;4703;48.748;19.142;2022-12-20T03:29:07;-1.60;99.90
9329;DHT22;4703;48.748;19.142;2022-12-20T03:31:34;-1.60;99.90
9329;DHT22;4703;48.748;19.142;2022-12-20T03:34:02;-1.50;99.90
9329;DHT22;4703;48.748;19.142;2022-12-20T03:36:29;-1.60;99.90
9329;DHT22;4703;48.748;19.142;2022-12-20T03:38:56;-1.70;99.90
9329;DHT22;4703;48.748;19.142;2022-12-20T03:41:23;-1.70;99.90
9329;DHT22;4703;48.748;19.142;2022-12-20T03:43:51;-1.60;99.90
9329;DHT22;4703;48.748;19.142;2022-12-20T03:46:18;-1.60;99.90
9329;DHT22;4703;48.748;19.142;2022-12-20T03:48:46;-1.60;99.90
9329;DHT22;4703;48.748;19.142;2022-12-20T03:51:13;-1.60;99.90
9329;DHT22;4703;48.748;19.142;2022-12-20T03:53:40;-1.50;99.90
9329;DHT22;4703;48.748;19.142;2022-12-20T03:56:07;-1.60;99.90
9329;DHT22;4703;48.748;19.142;2022-12-20T03:58:34;-1.40;99.90
9329;DHT22;4703;48.748;19.142;2022-12-20T04:01:01;-1.50;99.90
9329;DHT22;4703;48.748;19.142;2022-12-20T04:03:28;-1.50;99.90
9329;DHT22;4703;48.748;19.142;2022-12-20T04:05:55;-1.50;99.90
9329;DHT22;4703;48.748;19.142;2022-12-20T04:08:22;-1.50;99.90
9329;DHT22;4703;48.748;19.142;2022-12-20T04:10:49;-1.40;99.90
9329;DHT22;4703;48.748;19.142;2022-12-20T04:13:34;-1.50;99.90
9329;DHT22;4703;48.748;19.142;2022-12-20T04:16:01;-1.40;99.90
9329;DHT22;4703;48.748;19.142;2022-12-20T04:18:28;-1.50;99.90
9329;DHT22;4703;48.748;19.142;2022-12-20T04:20:55;-1.50;99.90
9329;DHT22;4703;48.748;19.142;2022-12-20T04:23:22;-1.50;99.90
9329;DHT22;4703;48.748;19.142;2022-12-20T04:25:48;-1.60;99.90
9329;DHT22;4703;48.748;19.142;2022-12-20T04:28:15;-1.50;99.90
9329;DHT22;4703;48.748;19.142;2022-12-20T04:30:42;-1.50;99.90
9329;DHT22;4703;48.748;19.142;2022-12-20T04:33:09;-1.50;99.90
9329;DHT22;4703;48.748;19.142;2022-12-20T04:35:37;-1.40;99.90
9329;DHT22;4703;48.748;19.142;2022-12-20T04:38:04;-1.40;99.90
9329;DHT22;4703;48.748;19.142;2022-12-20T04:40:30;-1.40;99.90
9329;DHT22;4703;48.748;19.142;2022-12-20T04:42:57;-1.40;99.90
9329;DHT22;4703;48.748;19.142;2022-12-20T04:45:24;-1.40;99.90
9329;DHT22;4703;48.748;19.142;2022-12-20T04:47:51;-1.40;99.90
9329;DHT22;4703;48.748;19.142;2022-12-20T04:50:18;-1.40;99.90
9329;DHT22;4703;48.748;19.142;2022-12-20T04:52:45;-1.40;99.90
9329;DHT22;4703;48.748;19.142;2022-12-20T04:55:36;-1.40;99.90
9329;DHT22;4703;48.748;19.142;2022-12-20T04:58:04;-1.50;99.90
9329;DHT22;4703;48.748;19.142;2022-12-20T05:00:33;-1.40;99.90
9329;DHT22;4703;48.748;19.142;2022-12-20T05:03:00;-1.40;99.90
9329;DHT22;4703;48.748;19.142;2022-12-20T05:05:28;1.40;99.90
9329;DHT22;4703;48.748;19.142;2022-12-20T05:07:55;-1.40;99.90
9329;DHT22;4703;48.748;19.142;2022-12-20T05:10:22;-1.40;99.90
9329;DHT22;4703;48.748;19.142;2022-12-20T05:12:49;-1.40;99.90
9329;DHT22;4703;48.748;19.142;2022-12-20T05:15:16;-1.40;99.90
9329;DHT22;4703;48.748;19.142;2022-12-20T05:17:43;-1.50;99.90
9329;DHT22;4703;48.748;19.142;2022-12-20T05:20:11;-1.50;99.90
9329;DHT22;4703;48.748;19.142;2022-12-20T05:22:38;-1.40;99.90
9329;DHT22;4703;48.748;19.142;2022-12-20T05:25:24;-1.40;99.90
9329;DHT22;4703;48.748;19.142;2022-12-20T05:28:09;-1.40;99.90
9329;DHT22;4703;48.748;19.142;2022-12-20T05:30:37;-1.40;99.90
9329;DHT22;4703;48.748;19.142;2022-12-20T05:33:03;-1.30;99.90
9329;DHT22;4703;48.748;19.142;2022-12-20T05:35:31;-0.90;99.90
9329;DHT22;4703;48.748;19.142;2022-12-20T05:37:58;-1.30;99.90
9329;DHT22;4703;48.748;19.142;2022-12-20T05:40:25;-1.40;99.90
9329;DHT22;4703;48.748;19.142;2022-12-20T05:42:52;-1.40;99.90
9329;DHT22;4703;48.748;19.142;2022-12-20T05:45:19;-1.30;99.90
9329;DHT22;4703;48.748;19.142;2022-12-20T05:47:46;-1.40;99.90
9329;DHT22;4703;48.748;19.142;2022-12-20T05:50:13;-1.30;99.90
9329;DHT22;4703;48.748;19.142;2022-12-20T05:52:44;-1.30;99.90
9329;DHT22;4703;48.748;19.142;2022-12-20T05:55:11;-1.40;99.90
9329;DHT22;4703;48.748;19.142;2022-12-20T05:57:39;-1.30;99.90
9329;DHT22;4703;48.748;19.142;2022-12-20T06:00:06;-1.40;99.90
9329;DHT22;4703;48.748;19.142;2022-12-20T06:02:34;-1.30;99.90
9329;DHT22;4703;48.748;19.142;2022-12-20T06:05:01;-1.30;99.90
9329;DHT22;4703;48.748;19.142;2022-12-20T06:07:28;-1.30;99.90
9329;DHT22;4703;48.748;19.142;2022-12-20T06:09:55;-1.30;99.90
9329;DHT22;4703;48.748;19.142;2022-12-20T06:12:23;-1.30;99.90
9329;DHT22;4703;48.748;19.142;2022-12-20T06:14:50;-1.40;99.90
9329;DHT22;4703;48.748;19.142;2022-12-20T06:17:17;-1.40;99.90
9329;DHT22;4703;48.748;19.142;2022-12-20T06:19:45;-1.50;99.90
9329;DHT22;4703;48.748;19.142;2022-12-20T06:22:12;-1.30;99.90
9329;DHT22;4703;48.748;19.142;2022-12-20T06:24:39;-1.30;99.90
9329;DHT22;4703;48.748;19.142;2022-12-20T06:27:13;-1.30;99.90
9329;DHT22;4703;48.748;19.142;2022-12-20T06:32:14;-1.30;99.90
9329;DHT22;4703;48.748;19.142;2022-12-20T06:34:41;-1.40;99.90
9329;DHT22;4703;48.748;19.142;2022-12-20T06:37:08;-1.40;99.90
9329;DHT22;4703;48.748;19.142;2022-12-20T06:39:35;0.00;99.90
9329;DHT22;4703;48.748;19.142;2022-12-20T06:42:03;-1.30;99.90
9329;DHT22;4703;48.748;19.142;2022-12-20T06:44:30;-1.30;99.90
9329;DHT22;4703;48.748;19.142;2022-12-20T06:46:57;-1.30;99.90
9329;DHT22;4703;48.748;19.142;2022-12-20T06:49:24;-1.30;99.90
9329;DHT22;4703;48.748;19.142;2022-12-20T06:51:51;-1.20;99.90
9329;DHT22;4703;48.748;19.142;2022-12-20T06:54:18;-1.20;99.90
9329;DHT22;4703;48.748;19.142;2022-12-20T06:56:45;-1.20;99.90
9329;DHT22;4703;48.748;19.142;2022-12-20T06:59:12;-1.10;99.90
9329;DHT22;4703;48.748;19.142;2022-12-20T07:01:39;-1.20;99.90
9329;DHT22;4703;48.748;19.142;2022-12-20T07:04:06;-1.20;99.90
9329;DHT22;4703;48.748;19.142;2022-12-20T07:06:34;-1.20;99.90
9329;DHT22;4703;48.748;19.142;2022-12-20T07:09:01;-1.30;99.90
9329;DHT22;4703;48.748;19.142;2022-12-20T07:11:28;-1.20;99.90
9329;DHT22;4703;48.748;19.142;2022-12-20T07:13:56;-1.10;99.90
9329;DHT22;4703;48.748;19.142;2022-12-20T07:16:23;-1.20;99.90
9329;DHT22;4703;48.748;19.142;2022-12-20T07:18:52;-1.10;99.90
9329;DHT22;4703;48.748;19.142;2022-12-20T07:21:19;-1.00;99.90
9329;DHT22;4703;48.748;19.142;2022-12-20T07:23:47;0.00;99.90
9329;DHT22;4703;48.748;19.142;2022-12-20T07:26:14;-0.90;99.90
9329;DHT22;4703;48.748;19.142;2022-12-20T07:28:42;-0.80;99.90
9329;DHT22;4703;48.748;19.142;2022-12-20T07:31:09;-0.80;99.90
9329;DHT22;4703;48.748;19.142;2022-12-20T07:33:36;1.80;99.90
9329;DHT22;4703;48.748;19.142;2022-12-20T07:36:10;0.40;99.90
9329;DHT22;4703;48.748;19.142;2022-12-20T07:38:39;-0.50;99.90
9329;DHT22;4703;48.748;19.142;2022-12-20T07:41:07;-0.90;99.90
9329;DHT22;4703;48.748;19.142;2022-12-20T07:43:35;-0.80;99.90
9329;DHT22;4703;48.748;19.142;2022-12-20T07:46:03;-0.80;99.90
9329;DHT22;4703;48.748;19.142;2022-12-20T07:48:31;-0.80;99.90
9329;DHT22;4703;48.748;19.142;2022-12-20T07:51:03;-0.70;99.90
9329;DHT22;4703;48.748;19.142;2022-12-20T07:53:36;-0.80;99.90
9329;DHT22;4703;48.748;19.142;2022-12-20T07:56:08;-0.70;99.90
9329;DHT22;4703;48.748;19.142;2022-12-20T07:58:38;-0.60;99.90
9329;DHT22;4703;48.748;19.142;2022-12-20T08:01:08;-0.70;99.90
9329;DHT22;4703;48.748;19.142;2022-12-20T08:03:40;-0.70;99.90
9329;DHT22;4703;48.748;19.142;2022-12-20T08:06:10;-0.70;99.90
9329;DHT22;4703;48.748;19.142;2022-12-20T08:08:41;-0.70;99.90
9329;DHT22;4703;48.748;19.142;2022-12-20T08:11:12;-0.80;99.90
9329;DHT22;4703;48.748;19.142;2022-12-20T08:13:40;-1.20;99.90
9329;DHT22;4703;48.748;19.142;2022-12-20T08:16:12;-0.60;99.90
9329;DHT22;4703;48.748;19.142;2022-12-20T08:18:39;-0.50;99.90
9329;DHT22;4703;48.748;19.142;2022-12-20T08:21:07;-0.50;99.90
9329;DHT22;4703;48.748;19.142;2022-12-20T08:23:34;-0.40;99.90
9329;DHT22;4703;48.748;19.142;2022-12-20T08:26:01;-0.40;99.90
9329;DHT22;4703;48.748;19.142;2022-12-20T08:28:28;-0.40;99.90
9329;DHT22;4703;48.748;19.142;2022-12-20T08:31:06;-0.30;99.90
9329;DHT22;4703;48.748;19.142;2022-12-20T08:33:36;-0.40;99.90
9329;DHT22;4703;48.748;19.142;2022-12-20T08:36:06;-0.30;99.90
9329;DHT22;4703;48.748;19.142;2022-12-20T08:38:35;-0.30;99.90
9329;DHT22;4703;48.748;19.142;2022-12-20T08:41:13;-0.20;99.90
9329;DHT22;4703;48.748;19.142;2022-12-20T08:43:41;-0.20;99.90
9329;DHT22;4703;48.748;19.142;2022-12-20T08:46:09;-0.10;99.90
9329;DHT22;4703;48.748;19.142;2022-12-20T08:48:38;-0.10;99.90
9329;DHT22;4703;48.748;19.142;2022-12-20T08:51:08;0.00;99.90
9329;DHT22;4703;48.748;19.142;2022-12-20T08:53:37;0.10;99.90
9329;DHT22;4703;48.748;19.142;2022-12-20T08:58:42;0.20;99.90
9329;DHT22;4703;48.748;19.142;2022-12-20T09:01:14;0.20;99.90
9329;DHT22;4703;48.748;19.142;2022-12-20T09:03:46;1.40;99.90
9329;DHT22;4703;48.748;19.142;2022-12-20T09:06:16;0.20;99.90
9329;DHT22;4703;48.748;19.142;2022-12-20T09:08:46;0.30;99.90
9329;DHT22;4703;48.748;19.142;2022-12-20T09:11:16;0.30;99.90
9329;DHT22;4703;48.748;19.142;2022-12-20T09:13:49;-0.10;99.90
9329;DHT22;4703;48.748;19.142;2022-12-20T09:16:21;0.50;99.90
9329;DHT22;4703;48.748;19.142;2022-12-20T09:18:54;0.60;99.90
9329;DHT22;4703;48.748;19.142;2022-12-20T09:21:30;0.80;99.90
9329;DHT22;4703;48.748;19.142;2022-12-20T09:23:58;0.80;99.90
9329;DHT22;4703;48.748;19.142;2022-12-20T09:26:25;0.80;99.90
9329;DHT22;4703;48.748;19.142;2022-12-20T09:28:52;0.90;99.90
9329;DHT22;4703;48.748;19.142;2022-12-20T09:31:23;1.00;99.90
9329;DHT22;4703;48.748;19.142;2022-12-20T09:33:55;1.10;99.90
9329;DHT22;4703;48.748;19.142;2022-12-20T09:36:25;1.10;99.90
9329;DHT22;4703;48.748;19.142;2022-12-20T09:38:54;1.30;99.90
9329;DHT22;4703;48.748;19.142;2022-12-20T09:41:37;1.30;99.90
9329;DHT22;4703;48.748;19.142;2022-12-20T09:44:23;1.40;99.90
9329;DHT22;4703;48.748;19.142;2022-12-20T09:47:04;1.50;99.90
9329;DHT22;4703;48.748;19.142;2022-12-20T09:49:44;1.50;99.90
9329;DHT22;4703;48.748;19.142;2022-12-20T09:55:38;1.70;99.90
9329;DHT22;4703;48.748;19.142;2022-12-20T10:01:18;1.60;99.90
9329;DHT22;4703;48.748;19.142;2022-12-20T10:03:52;1.60;99.90
9329;DHT22;4703;48.748;19.142;2022-12-20T10:06:39;4.40;99.90
9329;DHT22;4703;48.748;19.142;2022-12-20T10:15:56;1.70;99.90
9329;DHT22;4703;48.748;19.142;2022-12-20T10:24:31;1.80;99.90
9329;DHT22;4703;48.748;19.142;2022-12-20T10:27:19;1.90;99.90
9329;DHT22;4703;48.748;19.142;2022-12-20T10:29:48;1.90;99.90
9329;DHT22;4703;48.748;19.142;2022-12-20T10:32:19;1.90;99.90
9329;DHT22;4703;48.748;19.142;2022-12-20T10:37:35;1.90;99.90
9329;DHT22;4703;48.748;19.142;2022-12-20T10:40:26;1.90;99.90
9329;DHT22;4703;48.748;19.142;2022-12-20T10:43:21;2.30;99.90
9329;DHT22;4703;48.748;19.142;2022-12-20T10:46:00;1.90;99.90
9329;DHT22;4703;48.748;19.142;2022-12-20T10:54:00;2.30;99.90
9329;DHT22;4703;48.748;19.142;2022-12-20T10:56:32;3.50;99.90
9329;DHT22;4703;48.748;19.142;2022-12-20T10:59:03;2.40;99.90
9329;DHT22;4703;48.748;19.142;2022-12-20T11:01:50;2.50;99.90
9329;DHT22;4703;48.748;19.142;2022-12-20T11:06:59;2.50;99.90
9329;DHT22;4703;48.748;19.142;2022-12-20T11:10:02;2.50;99.90
9329;DHT22;4703;48.748;19.142;2022-12-20T11:12:53;2.60;99.90
9329;DHT22;4703;48.748;19.142;2022-12-20T11:15:27;2.70;99.70
9329;DHT22;4703;48.748;19.142;2022-12-20T11:21:25;2.80;99.40
9329;DHT22;4703;48.748;19.142;2022-12-20T11:27:58;3.00;99.20
9329;DHT22;4703;48.748;19.142;2022-12-20T11:30:45;3.20;98.80
9329;DHT22;4703;48.748;19.142;2022-12-20T11:35:51;3.60;98.30
9329;DHT22;4703;48.748;19.142;2022-12-20T11:41:37;4.10;97.20
9329;DHT22;4703;48.748;19.142;2022-12-20T11:44:29;4.20;95.60
9329;DHT22;4703;48.748;19.142;2022-12-20T11:53:30;3.70;95.40
9329;DHT22;4703;48.748;19.142;2022-12-20T11:59:30;3.20;95.80
9329;DHT22;4703;48.748;19.142;2022-12-20T12:02:04;3.00;96.10
9329;DHT22;4703;48.748;19.142;2022-12-20T12:04:45;5.30;97.60
9329;DHT22;4703;48.748;19.142;2022-12-20T12:07:34;2.90;96.50
9329;DHT22;4703;48.748;19.142;2022-12-20T12:10:03;2.70;96.50
9329;DHT22;4703;48.748;19.142;2022-12-20T12:12:45;2.70;96.50
9329;DHT22;4703;48.748;19.142;2022-12-20T12:20:55;2.70;96.20
9329;DHT22;4703;48.748;19.142;2022-12-20T12:23:47;2.60;96.40
9329;DHT22;4703;48.748;19.142;2022-12-20T12:26:27;2.50;97.50
9329;DHT22;4703;48.748;19.142;2022-12-20T12:29:02;2.50;96.80
9329;DHT22;4703;48.748;19.142;2022-12-20T12:37:13;2.40;96.70
9329;DHT22;4703;48.748;19.142;2022-12-20T12:46:12;2.20;97.00
9329;DHT22;4703;48.748;19.142;2022-12-20T12:51:53;2.20;97.20
9329;DHT22;4703;48.748;19.142;2022-12-20T12:54:34;2.20;97.50
9329;DHT22;4703;48.748;19.142;2022-12-20T12:59:44;2.10;97.70
9329;DHT22;4703;48.748;19.142;2022-12-20T13:17:49;2.00;97.30
9329;DHT22;4703;48.748;19.142;2022-12-20T13:20:19;2.00;97.40
9329;DHT22;4703;48.748;19.142;2022-12-20T13:25:45;2.00;97.60
9329;DHT22;4703;48.748;19.142;2022-12-20T13:38:55;2.00;97.60
9329;DHT22;4703;48.748;19.142;2022-12-20T13:41:45;2.00;97.70
9329;DHT22;4703;48.748;19.142;2022-12-20T13:46:53;2.00;98.50
9329;DHT22;4703;48.748;19.142;2022-12-20T13:49:33;2.00;98.00
9329;DHT22;4703;48.748;19.142;2022-12-20T13:55:01;2.00;97.70
9329;DHT22;4703;48.748;19.142;2022-12-20T13:57:41;1.90;97.60
9329;DHT22;4703;48.748;19.142;2022-12-20T14:00:17;1.90;97.70
9329;DHT22;4703;48.748;19.142;2022-12-20T14:02:48;1.90;97.80
9329;DHT22;4703;48.748;19.142;2022-12-20T14:05:36;1.80;98.00
9329;DHT22;4703;48.748;19.142;2022-12-20T14:08:12;1.80;98.10
9329;DHT22;4703;48.748;19.142;2022-12-20T14:10:40;1.80;98.20
9329;DHT22;4703;48.748;19.142;2022-12-20T14:13:34;1.70;98.20
9329;DHT22;4703;48.748;19.142;2022-12-20T14:16:13;4.20;99.80
9329;DHT22;4703;48.748;19.142;2022-12-20T14:18:50;1.70;98.30
9329;DHT22;4703;48.748;19.142;2022-12-20T14:21:25;2.90;98.80
9329;DHT22;4703;48.748;19.142;2022-12-20T14:23:55;1.60;98.30
9329;DHT22;4703;48.748;19.142;2022-12-20T14:26:29;1.50;98.30
9329;DHT22;4703;48.748;19.142;2022-12-20T14:28:59;1.50;98.40
9329;DHT22;4703;48.748;19.142;2022-12-20T14:31:32;1.50;98.70
9329;DHT22;4703;48.748;19.142;2022-12-20T14:34:12;1.50;98.70
9329;DHT22;4703;48.748;19.142;2022-12-20T14:36:45;1.50;98.80
9329;DHT22;4703;48.748;19.142;2022-12-20T14:39:25;1.50;98.90
9329;DHT22;4703;48.748;19.142;2022-12-20T14:44:35;1.40;99.20
9329;DHT22;4703;48.748;19.142;2022-12-20T14:47:18;1.40;99.40
9329;DHT22;4703;48.748;19.142;2022-12-20T14:49:53;1.40;99.50
9329;DHT22;4703;48.748;19.142;2022-12-20T14:55:10;1.40;99.10
9329;DHT22;4703;48.748;19.142;2022-12-20T14:57:51;1.40;99.30
9329;DHT22;4703;48.748;19.142;2022-12-20T15:00:23;1.30;99.10
9329;DHT22;4703;48.748;19.142;2022-12-20T15:02:58;3.50;99.90
9329;DHT22;4703;48.748;19.142;2022-12-20T15:11:11;1.20;99.90
9329;DHT22;4703;48.748;19.142;2022-12-20T15:16:16;1.20;99.90
9329;DHT22;4703;48.748;19.142;2022-12-20T15:18:53;1.20;99.90
9329;DHT22;4703;48.748;19.142;2022-12-20T15:24:03;1.20;99.90
9329;DHT22;4703;48.748;19.142;2022-12-20T15:26:36;1.20;99.90
9329;DHT22;4703;48.748;19.142;2022-12-20T15:29:04;1.10;99.90
9329;DHT22;4703;48.748;19.142;2022-12-20T15:31:34;1.10;99.90
9329;DHT22;4703;48.748;19.142;2022-12-20T15:34:25;3.10;99.90
9329;DHT22;4703;48.748;19.142;2022-12-20T15:36:54;1.10;99.90
9329;DHT22;4703;48.748;19.142;2022-12-20T15:39:22;1.10;99.90
9329;DHT22;4703;48.748;19.142;2022-12-20T15:41:50;1.00;99.90
9329;DHT22;4703;48.748;19.142;2022-12-20T15:44:23;1.10;99.90
9329;DHT22;4703;48.748;19.142;2022-12-20T15:46:51;1.20;99.90
9329;DHT22;4703;48.748;19.142;2022-12-20T15:49:25;3.90;99.90
9329;DHT22;4703;48.748;19.142;2022-12-20T15:51:56;1.10;99.90
9329;DHT22;4703;48.748;19.142;2022-12-20T15:54:28;1.00;99.90
9329;DHT22;4703;48.748;19.142;2022-12-20T15:57:05;1.00;99.90
9329;DHT22;4703;48.748;19.142;2022-12-20T15:59:35;0.90;99.90
9329;DHT22;4703;48.748;19.142;2022-12-20T16:02:25;1.10;99.90
9329;DHT22;4703;48.748;19.142;2022-12-20T16:04:53;1.00;99.90
9329;DHT22;4703;48.748;19.142;2022-12-20T16:07:21;1.10;99.90
9329;DHT22;4703;48.748;19.142;2022-12-20T16:09:49;1.00;99.90
9329;DHT22;4703;48.748;19.142;2022-12-20T16:12:28;1.00;99.90
9329;DHT22;4703;48.748;19.142;2022-12-20T16:14:58;1.00;99.90
9329;DHT22;4703;48.748;19.142;2022-12-20T16:17:25;0.90;99.90
9329;DHT22;4703;48.748;19.142;2022-12-20T16:19:52;1.00;99.90
9329;DHT22;4703;48.748;19.142;2022-12-20T16:22:20;1.00;99.90
9329;DHT22;4703;48.748;19.142;2022-12-20T16:24:49;0.90;99.90
9329;DHT22;4703;48.748;19.142;2022-12-20T16:27:17;0.90;99.90
9329;DHT22;4703;48.748;19.142;2022-12-20T16:29:45;0.90;99.90
9329;DHT22;4703;48.748;19.142;2022-12-20T16:32:17;0.80;99.90
9329;DHT22;4703;48.748;19.142;2022-12-20T16:34:46;0.80;99.90
9329;DHT22;4703;48.748;19.142;2022-12-20T16:37:16;0.80;99.90
9329;DHT22;4703;48.748;19.142;2022-12-20T16:39:44;0.80;99.90
9329;DHT22;4703;48.748;19.142;2022-12-20T16:42:15;0.80;99.90
9329;DHT22;4703;48.748;19.142;2022-12-20T16:44:44;0.80;99.90
9329;DHT22;4703;48.748;19.142;2022-12-20T16:47:12;0.80;99.90
9329;DHT22;4703;48.748;19.142;2022-12-20T16:49:41;0.70;99.90
9329;DHT22;4703;48.748;19.142;2022-12-20T16:52:17;3.40;99.90
9329;DHT22;4703;48.748;19.142;2022-12-20T16:54:46;0.70;99.90
9329;DHT22;4703;48.748;19.142;2022-12-20T16:57:13;4.20;99.90
9329;DHT22;4703;48.748;19.142;2022-12-20T16:59:40;0.80;99.90
9329;DHT22;4703;48.748;19.142;2022-12-20T17:02:24;3.00;99.90
9329;DHT22;4703;48.748;19.142;2022-12-20T17:04:54;0.70;99.90
9329;DHT22;4703;48.748;19.142;2022-12-20T17:07:21;0.80;99.90
9329;DHT22;4703;48.748;19.142;2022-12-20T17:09:48;0.70;99.90
9329;DHT22;4703;48.748;19.142;2022-12-20T17:12:32;0.80;99.90
9329;DHT22;4703;48.748;19.142;2022-12-20T17:14:59;0.80;99.90
9329;DHT22;4703;48.748;19.142;2022-12-20T17:17:26;0.80;99.90
9329;DHT22;4703;48.748;19.142;2022-12-20T17:19:53;0.70;99.90
9329;DHT22;4703;48.748;19.142;2022-12-20T17:22:20;0.70;99.90
9329;DHT22;4703;48.748;19.142;2022-12-20T17:25:07;0.60;99.90
9329;DHT22;4703;48.748;19.142;2022-12-20T17:27:43;0.70;99.90
9329;DHT22;4703;48.748;19.142;2022-12-20T17:30:10;0.60;99.90
9329;DHT22;4703;48.748;19.142;2022-12-20T17:32:37;0.60;99.90
9329;DHT22;4703;48.748;19.142;2022-12-20T17:35:05;-0.90;99.90
9329;DHT22;4703;48.748;19.142;2022-12-20T17:37:38;0.60;99.90
9329;DHT22;4703;48.748;19.142;2022-12-20T17:40:05;0.60;99.90
9329;DHT22;4703;48.748;19.142;2022-12-20T17:42:33;0.60;99.90
9329;DHT22;4703;48.748;19.142;2022-12-20T17:45:00;0.60;99.90
9329;DHT22;4703;48.748;19.142;2022-12-20T17:47:27;0.70;99.90
9329;DHT22;4703;48.748;19.142;2022-12-20T17:49:53;0.60;99.90
9329;DHT22;4703;48.748;19.142;2022-12-20T17:52:20;0.60;99.90
9329;DHT22;4703;48.748;19.142;2022-12-20T17:54:47;0.60;99.90
9329;DHT22;4703;48.748;19.142;2022-12-20T17:57:15;0.60;99.90
9329;DHT22;4703;48.748;19.142;2022-12-20T17:59:42;0.60;99.90
9329;DHT22;4703;48.748;19.142;2022-12-20T18:02:22;0.60;99.90
9329;DHT22;4703;48.748;19.142;2022-12-20T18:04:51;0.70;99.90
9329;DHT22;4703;48.748;19.142;2022-12-20T18:07:18;0.60;99.90
9329;DHT22;4703;48.748;19.142;2022-12-20T18:09:46;3.70;99.90
9329;DHT22;4703;48.748;19.142;2022-12-20T18:12:15;0.70;99.90
9329;DHT22;4703;48.748;19.142;2022-12-20T18:14:42;0.70;99.90
9329;DHT22;4703;48.748;19.142;2022-12-20T18:17:10;0.70;99.90
9329;DHT22;4703;48.748;19.142;2022-12-20T18:19:37;0.80;99.90
9329;DHT22;4703;48.748;19.142;2022-12-20T18:22:05;0.70;99.90
9329;DHT22;4703;48.748;19.142;2022-12-20T18:24:32;0.70;99.90
9329;DHT22;4703;48.748;19.142;2022-12-20T18:26:59;0.70;99.90
9329;DHT22;4703;48.748;19.142;2022-12-20T18:29:26;0.60;99.90
9329;DHT22;4703;48.748;19.142;2022-12-20T18:31:54;0.70;99.90
9329;DHT22;4703;48.748;19.142;2022-12-20T18:34:21;0.70;99.90
9329;DHT22;4703;48.748;19.142;2022-12-20T18:36:48;0.80;99.90
9329;DHT22;4703;48.748;19.142;2022-12-20T18:39:15;0.80;99.90
9329;DHT22;4703;48.748;19.142;2022-12-20T18:41:42;0.70;99.90
9329;DHT22;4703;48.748;19.142;2022-12-20T18:44:10;0.80;99.90
9329;DHT22;4703;48.748;19.142;2022-12-20T18:46:37;3.40;99.90
9329;DHT22;4703;48.748;19.142;2022-12-20T18:49:04;0.80;99.90
9329;DHT22;4703;48.748;19.142;2022-12-20T18:51:33;0.90;99.90